82V

Pine Bluffs Municipal Airport

Pine Bluffs, Wyoming, USA
METAR K82V 150735Z AUTO 26003KT 10SM CLR M06/M11 A3006 RMK AO2
Observed Flight Rules
Dec-15 @ 07:35 UTC (17 minutes ago) Visual Flight Rules
Wind Visibility Clouds
260° at 3 knots 10 miles
  • Clear skies
Temperatures Readings
Current -6°C / 21°F
Dewpoint -11°C / 12°F
Humidity 68%
Altimeter 30.06" Hg
Pressure 1018 hPa
Elevation 1570
METAR K82V 150735Z AUTO 26003KT 10SM CLR M06/M11 A3006 RMK AO2
Observed Flight Rules
Dec-15 @ 07:35 UTC
(17 minutes ago)
VFR
Wind Visibility
260° at 3 knots 10 miles
Clouds
  • Clear skies
Temperature Dewpoint
-6°C / 21°F -11°C / 12°F
Humidity Altimeter Pressure
68% 30.06" Hg 1018 hPa